sensor_id;sensor_type;location;lat;lon;timestamp;temperature;humidity
46562;DHT22;32289;42.688;23.330;2023-04-15T00:00:35;8.10;99.90
46562;DHT22;32289;42.688;23.330;2023-04-15T00:04:16;8.20;99.90
46562;DHT22;32289;42.688;23.330;2023-04-15T00:07:57;8.20;99.90
46562;DHT22;32289;42.688;23.330;2023-04-15T00:11:39;8.20;99.90
46562;DHT22;32289;42.688;23.330;2023-04-15T00:15:19;8.30;99.90
46562;DHT22;32289;42.688;23.330;2023-04-15T00:19:00;8.30;99.90
46562;DHT22;32289;42.688;23.330;2023-04-15T00:22:41;8.30;99.90
46562;DHT22;32289;42.688;23.330;2023-04-15T00:26:21;8.30;99.90
46562;DHT22;32289;42.688;23.330;2023-04-15T00:30:02;8.20;99.90
46562;DHT22;32289;42.688;23.330;2023-04-15T00:33:43;8.30;99.90
46562;DHT22;32289;42.688;23.330;2023-04-15T00:37:24;8.30;99.90
46562;DHT22;32289;42.688;23.330;2023-04-15T00:41:04;8.30;99.90
46562;DHT22;32289;42.688;23.330;2023-04-15T00:44:45;8.30;99.90
46562;DHT22;32289;42.688;23.330;2023-04-15T00:48:26;8.20;99.90
46562;DHT22;32289;42.688;23.330;2023-04-15T00:52:08;8.10;99.90
46562;DHT22;32289;42.688;23.330;2023-04-15T00:55:49;8.00;99.90
46562;DHT22;32289;42.688;23.330;2023-04-15T00:59:30;8.20;99.90
46562;DHT22;32289;42.688;23.330;2023-04-15T01:03:12;8.30;99.90
46562;DHT22;32289;42.688;23.330;2023-04-15T01:06:55;8.30;99.90
46562;DHT22;32289;42.688;23.330;2023-04-15T01:10:37;8.40;99.90
46562;DHT22;32289;42.688;23.330;2023-04-15T01:14:19;8.30;99.90
46562;DHT22;32289;42.688;23.330;2023-04-15T01:18:01;8.10;99.90
46562;DHT22;32289;42.688;23.330;2023-04-15T01:21:42;7.90;99.90
46562;DHT22;32289;42.688;23.330;2023-04-15T01:25:42;7.90;99.90
46562;DHT22;32289;42.688;23.330;2023-04-15T01:29:23;8.00;99.90
46562;DHT22;32289;42.688;23.330;2023-04-15T01:33:04;7.90;99.90
46562;DHT22;32289;42.688;23.330;2023-04-15T01:36:45;7.90;99.90
46562;DHT22;32289;42.688;23.330;2023-04-15T01:40:26;7.80;99.90
46562;DHT22;32289;42.688;23.330;2023-04-15T01:44:07;7.80;99.90
46562;DHT22;32289;42.688;23.330;2023-04-15T01:47:51;7.80;99.90
46562;DHT22;32289;42.688;23.330;2023-04-15T01:51:38;7.90;99.90
46562;DHT22;32289;42.688;23.330;2023-04-15T01:55:18;7.70;99.90
46562;DHT22;32289;42.688;23.330;2023-04-15T01:58:59;7.70;99.90
46562;DHT22;32289;42.688;23.330;2023-04-15T02:02:40;7.50;99.90
46562;DHT22;32289;42.688;23.330;2023-04-15T02:06:20;7.50;99.90
46562;DHT22;32289;42.688;23.330;2023-04-15T02:10:01;7.40;99.90
46562;DHT22;32289;42.688;23.330;2023-04-15T02:13:43;7.20;99.90
46562;DHT22;32289;42.688;23.330;2023-04-15T02:17:24;7.10;99.90
46562;DHT22;32289;42.688;23.330;2023-04-15T02:21:04;7.00;99.90
46562;DHT22;32289;42.688;23.330;2023-04-15T02:24:46;7.00;99.90
46562;DHT22;32289;42.688;23.330;2023-04-15T02:28:27;7.10;99.90
46562;DHT22;32289;42.688;23.330;2023-04-15T02:32:07;7.10;99.90
46562;DHT22;32289;42.688;23.330;2023-04-15T02:35:48;7.00;99.90
46562;DHT22;32289;42.688;23.330;2023-04-15T02:39:29;7.00;99.90
46562;DHT22;32289;42.688;23.330;2023-04-15T02:43:09;7.00;99.90
46562;DHT22;32289;42.688;23.330;2023-04-15T02:46:50;6.90;99.90
46562;DHT22;32289;42.688;23.330;2023-04-15T02:50:33;6.90;99.90
46562;DHT22;32289;42.688;23.330;2023-04-15T02:54:16;6.60;99.90
46562;DHT22;32289;42.688;23.330;2023-04-15T02:57:57;6.70;99.90
46562;DHT22;32289;42.688;23.330;2023-04-15T03:01:39;6.40;99.90
46562;DHT22;32289;42.688;23.330;2023-04-15T03:05:20;6.30;99.90
46562;DHT22;32289;42.688;23.330;2023-04-15T03:09:02;6.00;99.90
46562;DHT22;32289;42.688;23.330;2023-04-15T03:12:43;5.90;99.90
46562;DHT22;32289;42.688;23.330;2023-04-15T03:16:24;5.80;99.90
46562;DHT22;32289;42.688;23.330;2023-04-15T03:20:05;5.60;99.90
46562;DHT22;32289;42.688;23.330;2023-04-15T03:23:47;5.80;99.90
46562;DHT22;32289;42.688;23.330;2023-04-15T03:27:28;5.60;99.90
46562;DHT22;32289;42.688;23.330;2023-04-15T03:31:08;5.60;99.90
46562;DHT22;32289;42.688;23.330;2023-04-15T03:34:49;5.50;99.90
46562;DHT22;32289;42.688;23.330;2023-04-15T03:38:30;5.40;99.90
46562;DHT22;32289;42.688;23.330;2023-04-15T03:42:11;5.30;99.90
46562;DHT22;32289;42.688;23.330;2023-04-15T03:45:51;5.30;99.90
46562;DHT22;32289;42.688;23.330;2023-04-15T03:49:32;5.60;99.90
46562;DHT22;32289;42.688;23.330;2023-04-15T03:53:13;5.40;99.90
46562;DHT22;32289;42.688;23.330;2023-04-15T03:56:54;5.60;99.90
46562;DHT22;32289;42.688;23.330;2023-04-15T04:00:35;5.70;99.90
46562;DHT22;32289;42.688;23.330;2023-04-15T04:04:15;5.90;99.90
46562;DHT22;32289;42.688;23.330;2023-04-15T04:07:56;6.00;99.90
46562;DHT22;32289;42.688;23.330;2023-04-15T04:11:37;6.20;99.90
46562;DHT22;32289;42.688;23.330;2023-04-15T04:15:17;6.10;99.90
46562;DHT22;32289;42.688;23.330;2023-04-15T04:18:58;6.20;99.90
46562;DHT22;32289;42.688;23.330;2023-04-15T04:22:39;6.10;99.90
46562;DHT22;32289;42.688;23.330;2023-04-15T04:26:20;6.10;99.90
46562;DHT22;32289;42.688;23.330;2023-04-15T04:30:01;5.80;99.90
46562;DHT22;32289;42.688;23.330;2023-04-15T04:33:42;5.70;99.90
46562;DHT22;32289;42.688;23.330;2023-04-15T04:37:23;6.00;99.90
46562;DHT22;32289;42.688;23.330;2023-04-15T04:41:04;6.00;99.90
46562;DHT22;32289;42.688;23.330;2023-04-15T04:44:45;6.10;99.90
46562;DHT22;32289;42.688;23.330;2023-04-15T04:48:26;6.30;99.90
46562;DHT22;32289;42.688;23.330;2023-04-15T04:52:07;6.50;99.90
46562;DHT22;32289;42.688;23.330;2023-04-15T04:55:47;6.50;99.90
46562;DHT22;32289;42.688;23.330;2023-04-15T04:59:28;6.60;99.90
46562;DHT22;32289;42.688;23.330;2023-04-15T05:03:09;6.70;99.90
46562;DHT22;32289;42.688;23.330;2023-04-15T05:06:50;6.80;99.90
46562;DHT22;32289;42.688;23.330;2023-04-15T05:10:31;7.00;99.90
46562;DHT22;32289;42.688;23.330;2023-04-15T05:14:11;7.90;99.90
46562;DHT22;32289;42.688;23.330;2023-04-15T05:17:52;8.80;99.90
46562;DHT22;32289;42.688;23.330;2023-04-15T05:21:33;8.70;99.90
46562;DHT22;32289;42.688;23.330;2023-04-15T05:25:13;12.50;93.00
46562;DHT22;32289;42.688;23.330;2023-04-15T05:28:54;10.30;97.10
46562;DHT22;32289;42.688;23.330;2023-04-15T05:32:35;9.20;99.90
46562;DHT22;32289;42.688;23.330;2023-04-15T05:36:15;9.00;99.90
46562;DHT22;32289;42.688;23.330;2023-04-15T05:39:56;12.50;84.30
46562;DHT22;32289;42.688;23.330;2023-04-15T05:43:37;15.00;68.80
46562;DHT22;32289;42.688;23.330;2023-04-15T05:47:18;15.30;63.40
46562;DHT22;32289;42.688;23.330;2023-04-15T05:50:59;16.20;61.50
46562;DHT22;32289;42.688;23.330;2023-04-15T05:54:40;15.60;62.80
46562;DHT22;32289;42.688;23.330;2023-04-15T05:58:20;14.40;63.90
46562;DHT22;32289;42.688;23.330;2023-04-15T06:02:01;17.00;57.70
46562;DHT22;32289;42.688;23.330;2023-04-15T06:05:42;17.50;56.80
46562;DHT22;32289;42.688;23.330;2023-04-15T06:09:24;16.00;58.20
46562;DHT22;32289;42.688;23.330;2023-04-15T06:13:05;16.90;55.00
46562;DHT22;32289;42.688;23.330;2023-04-15T06:16:46;18.00;56.10
46562;DHT22;32289;42.688;23.330;2023-04-15T06:20:26;18.10;56.40
46562;DHT22;32289;42.688;23.330;2023-04-15T06:24:08;17.50;56.80
46562;DHT22;32289;42.688;23.330;2023-04-15T06:27:48;17.80;55.40
46562;DHT22;32289;42.688;23.330;2023-04-15T06:31:29;17.30;55.30
46562;DHT22;32289;42.688;23.330;2023-04-15T06:35:10;18.20;54.20
46562;DHT22;32289;42.688;23.330;2023-04-15T06:38:51;18.50;54.40
46562;DHT22;32289;42.688;23.330;2023-04-15T06:42:31;19.00;52.90
46562;DHT22;32289;42.688;23.330;2023-04-15T06:46:12;18.90;54.60
46562;DHT22;32289;42.688;23.330;2023-04-15T06:49:53;17.70;54.90
46562;DHT22;32289;42.688;23.330;2023-04-15T06:53:33;19.70;54.10
46562;DHT22;32289;42.688;23.330;2023-04-15T06:57:15;18.00;53.60
46562;DHT22;32289;42.688;23.330;2023-04-15T07:00:55;17.60;54.80
46562;DHT22;32289;42.688;23.330;2023-04-15T07:04:36;19.30;52.90
46562;DHT22;32289;42.688;23.330;2023-04-15T07:08:18;19.00;52.30
46562;DHT22;32289;42.688;23.330;2023-04-15T07:11:59;19.90;52.00
46562;DHT22;32289;42.688;23.330;2023-04-15T07:15:39;18.40;52.80
46562;DHT22;32289;42.688;23.330;2023-04-15T07:19:20;19.40;50.90
46562;DHT22;32289;42.688;23.330;2023-04-15T07:23:01;20.40;51.00
46562;DHT22;32289;42.688;23.330;2023-04-15T07:26:43;19.70;51.70
46562;DHT22;32289;42.688;23.330;2023-04-15T07:30:24;20.00;51.70
46562;DHT22;32289;42.688;23.330;2023-04-15T07:34:06;19.50;49.60
46562;DHT22;32289;42.688;23.330;2023-04-15T07:37:47;20.10;50.20
46562;DHT22;32289;42.688;23.330;2023-04-15T07:41:28;20.20;49.90
46562;DHT22;32289;42.688;23.330;2023-04-15T07:45:09;19.00;51.00
46562;DHT22;32289;42.688;23.330;2023-04-15T07:48:50;20.00;50.40
46562;DHT22;32289;42.688;23.330;2023-04-15T07:52:31;20.00;50.60
46562;DHT22;32289;42.688;23.330;2023-04-15T07:56:18;22.70;46.70
46562;DHT22;32289;42.688;23.330;2023-04-15T07:59:59;22.20;45.70
46562;DHT22;32289;42.688;23.330;2023-04-15T08:03:40;23.10;46.00
46562;DHT22;32289;42.688;23.330;2023-04-15T08:07:22;21.80;46.40
46562;DHT22;32289;42.688;23.330;2023-04-15T08:11:03;24.20;43.90
46562;DHT22;32289;42.688;23.330;2023-04-15T08:14:43;25.90;41.60
46562;DHT22;32289;42.688;23.330;2023-04-15T08:18:24;22.30;44.80
46562;DHT22;32289;42.688;23.330;2023-04-15T08:22:05;20.90;46.50
46562;DHT22;32289;42.688;23.330;2023-04-15T08:25:46;20.20;46.40
46562;DHT22;32289;42.688;23.330;2023-04-15T08:29:27;22.70;41.80
46562;DHT22;32289;42.688;23.330;2023-04-15T08:33:08;23.10;42.00
46562;DHT22;32289;42.688;23.330;2023-04-15T08:36:49;22.70;41.40
46562;DHT22;32289;42.688;23.330;2023-04-15T08:40:41;21.70;42.40
46562;DHT22;32289;42.688;23.330;2023-04-15T08:44:23;24.40;40.50
46562;DHT22;32289;42.688;23.330;2023-04-15T08:48:05;22.10;42.10
46562;DHT22;32289;42.688;23.330;2023-04-15T08:51:47;20.30;42.90
46562;DHT22;32289;42.688;23.330;2023-04-15T08:55:32;18.50;52.00
46562;DHT22;32289;42.688;23.330;2023-04-15T08:59:15;19.90;46.30
46562;DHT22;32289;42.688;23.330;2023-04-15T09:02:56;21.80;44.90
46562;DHT22;32289;42.688;23.330;2023-04-15T09:06:39;20.90;43.10
46562;DHT22;32289;42.688;23.330;2023-04-15T09:10:20;20.90;42.80
46562;DHT22;32289;42.688;23.330;2023-04-15T09:14:01;19.00;47.30
46562;DHT22;32289;42.688;23.330;2023-04-15T09:17:42;18.30;50.00
46562;DHT22;32289;42.688;23.330;2023-04-15T09:21:23;17.90;50.40
46562;DHT22;32289;42.688;23.330;2023-04-15T09:25:25;18.10;51.00
46562;DHT22;32289;42.688;23.330;2023-04-15T09:29:10;19.40;48.90
46562;DHT22;32289;42.688;23.330;2023-04-15T09:32:55;18.50;50.10
46562;DHT22;32289;42.688;23.330;2023-04-15T09:36:52;17.50;51.60
46562;DHT22;32289;42.688;23.330;2023-04-15T09:40:40;18.00;50.70
46562;DHT22;32289;42.688;23.330;2023-04-15T09:44:25;19.30;48.40
46562;DHT22;32289;42.688;23.330;2023-04-15T09:48:20;17.80;49.20
46562;DHT22;32289;42.688;23.330;2023-04-15T09:52:01;18.90;48.60
46562;DHT22;32289;42.688;23.330;2023-04-15T09:55:58;17.80;49.60
46562;DHT22;32289;42.688;23.330;2023-04-15T09:59:40;17.60;49.80
46562;DHT22;32289;42.688;23.330;2023-04-15T10:03:23;17.50;50.10
46562;DHT22;32289;42.688;23.330;2023-04-15T10:07:05;17.50;48.70
46562;DHT22;32289;42.688;23.330;2023-04-15T10:10:47;17.30;48.60
46562;DHT22;32289;42.688;23.330;2023-04-15T10:14:31;17.70;48.90
46562;DHT22;32289;42.688;23.330;2023-04-15T10:18:15;17.60;48.40
46562;DHT22;32289;42.688;23.330;2023-04-15T10:21:59;18.60;46.60
46562;DHT22;32289;42.688;23.330;2023-04-15T10:25:40;20.50;43.60
46562;DHT22;32289;42.688;23.330;2023-04-15T10:29:23;19.80;43.70
46562;DHT22;32289;42.688;23.330;2023-04-15T10:33:05;19.30;44.40
46562;DHT22;32289;42.688;23.330;2023-04-15T10:36:47;19.50;44.00
46562;DHT22;32289;42.688;23.330;2023-04-15T10:40:28;19.00;44.10
46562;DHT22;32289;42.688;23.330;2023-04-15T10:44:11;18.40;44.30
46562;DHT22;32289;42.688;23.330;2023-04-15T10:47:55;18.80;42.50
46562;DHT22;32289;42.688;23.330;2023-04-15T10:51:38;20.10;42.50
46562;DHT22;32289;42.688;23.330;2023-04-15T10:55:24;19.90;42.70
46562;DHT22;32289;42.688;23.330;2023-04-15T10:59:05;19.70;43.20
46562;DHT22;32289;42.688;23.330;2023-04-15T11:02:53;20.50;40.50
46562;DHT22;32289;42.688;23.330;2023-04-15T11:06:44;20.40;39.20
46562;DHT22;32289;42.688;23.330;2023-04-15T11:14:14;20.90;38.50
46562;DHT22;32289;42.688;23.330;2023-04-15T11:21:51;21.10;37.10
46562;DHT22;32289;42.688;23.330;2023-04-15T11:25:33;20.90;36.80
46562;DHT22;32289;42.688;23.330;2023-04-15T11:29:17;20.60;35.30
46562;DHT22;32289;42.688;23.330;2023-04-15T11:33:00;20.40;36.00
46562;DHT22;32289;42.688;23.330;2023-04-15T11:36:42;20.90;36.90
46562;DHT22;32289;42.688;23.330;2023-04-15T11:40:24;20.10;37.30
46562;DHT22;32289;42.688;23.330;2023-04-15T11:44:15;20.70;37.10
46562;DHT22;32289;42.688;23.330;2023-04-15T11:48:11;21.20;37.20
46562;DHT22;32289;42.688;23.330;2023-04-15T11:51:52;20.80;36.70
46562;DHT22;32289;42.688;23.330;2023-04-15T11:55:51;20.80;37.20
46562;DHT22;32289;42.688;23.330;2023-04-15T11:59:42;20.50;40.40
46562;DHT22;32289;42.688;23.330;2023-04-15T12:03:27;20.90;37.50
46562;DHT22;32289;42.688;23.330;2023-04-15T12:07:08;20.20;37.70
46562;DHT22;32289;42.688;23.330;2023-04-15T12:10:48;20.80;39.50
46562;DHT22;32289;42.688;23.330;2023-04-15T12:14:31;21.00;40.20
46562;DHT22;32289;42.688;23.330;2023-04-15T12:18:18;20.90;39.40
46562;DHT22;32289;42.688;23.330;2023-04-15T12:22:04;20.10;40.40
46562;DHT22;32289;42.688;23.330;2023-04-15T12:25:50;20.30;40.40
46562;DHT22;32289;42.688;23.330;2023-04-15T12:29:33;20.20;39.60
46562;DHT22;32289;42.688;23.330;2023-04-15T12:33:14;20.00;40.00
46562;DHT22;32289;42.688;23.330;2023-04-15T12:36:55;19.80;39.80
46562;DHT22;32289;42.688;23.330;2023-04-15T12:40:37;20.00;40.00
46562;DHT22;32289;42.688;23.330;2023-04-15T12:44:18;20.00;40.40
46562;DHT22;32289;42.688;23.330;2023-04-15T12:47:58;19.90;39.70
46562;DHT22;32289;42.688;23.330;2023-04-15T12:51:39;20.60;39.40
46562;DHT22;32289;42.688;23.330;2023-04-15T12:55:20;20.50;39.60
46562;DHT22;32289;42.688;23.330;2023-04-15T12:59:01;20.50;38.80
46562;DHT22;32289;42.688;23.330;2023-04-15T13:02:43;20.60;39.40
46562;DHT22;32289;42.688;23.330;2023-04-15T13:06:24;20.50;40.30
46562;DHT22;32289;42.688;23.330;2023-04-15T13:10:05;20.70;41.00
46562;DHT22;32289;42.688;23.330;2023-04-15T13:13:46;20.30;39.70
46562;DHT22;32289;42.688;23.330;2023-04-15T13:17:27;20.10;38.90
46562;DHT22;32289;42.688;23.330;2023-04-15T13:21:07;20.40;39.10
46562;DHT22;32289;42.688;23.330;2023-04-15T13:24:50;20.40;38.40
46562;DHT22;32289;42.688;23.330;2023-04-15T13:28:30;20.00;39.00
46562;DHT22;32289;42.688;23.330;2023-04-15T13:32:11;19.90;38.70
46562;DHT22;32289;42.688;23.330;2023-04-15T13:35:52;19.70;38.70
46562;DHT22;32289;42.688;23.330;2023-04-15T13:39:33;19.60;40.20
46562;DHT22;32289;42.688;23.330;2023-04-15T13:43:14;20.10;39.60
46562;DHT22;32289;42.688;23.330;2023-04-15T13:46:55;20.60;39.40
46562;DHT22;32289;42.688;23.330;2023-04-15T13:50:35;20.40;39.90
46562;DHT22;32289;42.688;23.330;2023-04-15T13:54:16;20.00;40.60
46562;DHT22;32289;42.688;23.330;2023-04-15T13:57:57;19.60;40.30
46562;DHT22;32289;42.688;23.330;2023-04-15T14:01:37;19.60;41.10
46562;DHT22;32289;42.688;23.330;2023-04-15T14:05:20;19.80;40.70
46562;DHT22;32289;42.688;23.330;2023-04-15T14:09:01;20.10;40.30
46562;DHT22;32289;42.688;23.330;2023-04-15T14:12:42;20.00;39.70
46562;DHT22;32289;42.688;23.330;2023-04-15T14:16:22;19.60;39.00
46562;DHT22;32289;42.688;23.330;2023-04-15T14:20:06;19.70;40.40
46562;DHT22;32289;42.688;23.330;2023-04-15T14:23:47;19.60;39.90
46562;DHT22;32289;42.688;23.330;2023-04-15T14:27:27;19.50;40.60
46562;DHT22;32289;42.688;23.330;2023-04-15T14:31:08;19.40;40.90
46562;DHT22;32289;42.688;23.330;2023-04-15T14:34:49;19.40;40.80
46562;DHT22;32289;42.688;23.330;2023-04-15T14:38:30;19.70;40.90
46562;DHT22;32289;42.688;23.330;2023-04-15T14:42:10;19.70;40.70
46562;DHT22;32289;42.688;23.330;2023-04-15T14:45:51;19.40;40.80
46562;DHT22;32289;42.688;23.330;2023-04-15T14:49:32;19.60;39.80
46562;DHT22;32289;42.688;23.330;2023-04-15T14:53:12;19.90;40.80
46562;DHT22;32289;42.688;23.330;2023-04-15T14:56:53;19.60;41.30
46562;DHT22;32289;42.688;23.330;2023-04-15T15:00:34;19.40;39.30
46562;DHT22;32289;42.688;23.330;2023-04-15T15:04:15;19.10;39.40
46562;DHT22;32289;42.688;23.330;2023-04-15T15:07:56;19.00;40.10
46562;DHT22;32289;42.688;23.330;2023-04-15T15:11:36;18.90;41.00
46562;DHT22;32289;42.688;23.330;2023-04-15T15:15:17;19.20;40.70
46562;DHT22;32289;42.688;23.330;2023-04-15T15:18:58;19.00;40.50
46562;DHT22;32289;42.688;23.330;2023-04-15T15:22:38;19.40;40.70
46562;DHT22;32289;42.688;23.330;2023-04-15T15:26:19;19.30;40.40
46562;DHT22;32289;42.688;23.330;2023-04-15T15:30:00;19.10;40.90
46562;DHT22;32289;42.688;23.330;2023-04-15T15:33:40;18.70;41.40
46562;DHT22;32289;42.688;23.330;2023-04-15T15:37:21;18.70;43.00
46562;DHT22;32289;42.688;23.330;2023-04-15T15:41:03;18.40;41.80
46562;DHT22;32289;42.688;23.330;2023-04-15T15:44:43;18.20;41.70
46562;DHT22;32289;42.688;23.330;2023-04-15T15:48:24;18.20;42.40
46562;DHT22;32289;42.688;23.330;2023-04-15T15:52:05;18.30;42.00
46562;DHT22;32289;42.688;23.330;2023-04-15T15:55:46;18.30;42.30
46562;DHT22;32289;42.688;23.330;2023-04-15T15:59:27;18.30;42.20
46562;DHT22;32289;42.688;23.330;2023-04-15T16:03:08;18.20;42.90
46562;DHT22;32289;42.688;23.330;2023-04-15T16:06:49;18.30;43.40
46562;DHT22;32289;42.688;23.330;2023-04-15T16:10:29;18.30;42.40
46562;DHT22;32289;42.688;23.330;2023-04-15T16:14:10;18.10;42.40
46562;DHT22;32289;42.688;23.330;2023-04-15T16:17:51;18.00;42.80
46562;DHT22;32289;42.688;23.330;2023-04-15T16:21:33;18.00;42.80
46562;DHT22;32289;42.688;23.330;2023-04-15T16:25:14;18.00;43.20
46562;DHT22;32289;42.688;23.330;2023-04-15T16:28:54;17.90;43.50
46562;DHT22;32289;42.688;23.330;2023-04-15T16:32:35;17.70;43.30
46562;DHT22;32289;42.688;23.330;2023-04-15T16:36:16;17.40;43.90
46562;DHT22;32289;42.688;23.330;2023-04-15T16:39:56;17.40;43.90
46562;DHT22;32289;42.688;23.330;2023-04-15T16:43:37;17.30;43.70
46562;DHT22;32289;42.688;23.330;2023-04-15T16:47:18;17.20;43.40
46562;DHT22;32289;42.688;23.330;2023-04-15T16:50:58;17.00;44.20
46562;DHT22;32289;42.688;23.330;2023-04-15T16:54:39;16.90;44.80
46562;DHT22;32289;42.688;23.330;2023-04-15T16:58:20;16.80;45.70
46562;DHT22;32289;42.688;23.330;2023-04-15T17:02:01;16.60;46.10
46562;DHT22;32289;42.688;23.330;2023-04-15T17:05:42;16.70;45.30
46562;DHT22;32289;42.688;23.330;2023-04-15T17:09:23;16.60;46.10
46562;DHT22;32289;42.688;23.330;2023-04-15T17:13:03;16.50;46.30
46562;DHT22;32289;42.688;23.330;2023-04-15T17:16:44;16.40;46.70
46562;DHT22;32289;42.688;23.330;2023-04-15T17:20:25;16.40;47.10
46562;DHT22;32289;42.688;23.330;2023-04-15T17:24:06;16.30;47.30
46562;DHT22;32289;42.688;23.330;2023-04-15T17:27:47;16.10;47.20
46562;DHT22;32289;42.688;23.330;2023-04-15T17:31:28;16.00;47.60
46562;DHT22;32289;42.688;23.330;2023-04-15T17:35:09;16.00;48.40
46562;DHT22;32289;42.688;23.330;2023-04-15T17:38:50;15.90;48.10
46562;DHT22;32289;42.688;23.330;2023-04-15T17:42:31;15.80;48.50
46562;DHT22;32289;42.688;23.330;2023-04-15T17:46:12;15.60;50.00
46562;DHT22;32289;42.688;23.330;2023-04-15T17:49:53;15.60;50.10
46562;DHT22;32289;42.688;23.330;2023-04-15T17:53:33;15.60;50.70
46562;DHT22;32289;42.688;23.330;2023-04-15T17:57:14;15.60;51.00
46562;DHT22;32289;42.688;23.330;2023-04-15T18:00:55;15.50;51.20
46562;DHT22;32289;42.688;23.330;2023-04-15T18:04:35;15.50;52.20
46562;DHT22;32289;42.688;23.330;2023-04-15T18:08:16;15.40;52.70
46562;DHT22;32289;42.688;23.330;2023-04-15T18:11:57;15.40;52.70
46562;DHT22;32289;42.688;23.330;2023-04-15T18:15:37;15.30;53.60
46562;DHT22;32289;42.688;23.330;2023-04-15T18:19:18;15.20;53.10
46562;DHT22;32289;42.688;23.330;2023-04-15T18:22:59;15.10;53.30
46562;DHT22;32289;42.688;23.330;2023-04-15T18:26:40;15.20;53.70
46562;DHT22;32289;42.688;23.330;2023-04-15T18:30:20;14.90;53.80
46562;DHT22;32289;42.688;23.330;2023-04-15T18:34:01;14.80;53.80
46562;DHT22;32289;42.688;23.330;2023-04-15T18:37:45;14.70;56.30
46562;DHT22;32289;42.688;23.330;2023-04-15T18:41:28;14.50;55.90
46562;DHT22;32289;42.688;23.330;2023-04-15T18:45:09;14.20;56.50
46562;DHT22;32289;42.688;23.330;2023-04-15T18:48:50;14.20;56.60
46562;DHT22;32289;42.688;23.330;2023-04-15T18:52:31;14.00;57.30
46562;DHT22;32289;42.688;23.330;2023-04-15T18:56:13;13.90;57.50
46562;DHT22;32289;42.688;23.330;2023-04-15T18:59:53;13.90;58.40
46562;DHT22;32289;42.688;23.330;2023-04-15T19:03:34;13.90;57.30
46562;DHT22;32289;42.688;23.330;2023-04-15T19:07:15;13.70;58.20
46562;DHT22;32289;42.688;23.330;2023-04-15T19:10:55;13.70;56.70
46562;DHT22;32289;42.688;23.330;2023-04-15T19:14:36;13.60;57.30
46562;DHT22;32289;42.688;23.330;2023-04-15T19:18:17;13.60;57.10
46562;DHT22;32289;42.688;23.330;2023-04-15T19:21:57;13.60;57.80
46562;DHT22;32289;42.688;23.330;2023-04-15T19:25:40;13.50;57.70
46562;DHT22;32289;42.688;23.330;2023-04-15T19:29:21;13.40;57.90
46562;DHT22;32289;42.688;23.330;2023-04-15T19:33:02;13.40;57.80
46562;DHT22;32289;42.688;23.330;2023-04-15T19:36:43;13.30;58.10
46562;DHT22;32289;42.688;23.330;2023-04-15T19:40:23;13.30;57.90
46562;DHT22;32289;42.688;23.330;2023-04-15T19:44:04;13.40;57.90
46562;DHT22;32289;42.688;23.330;2023-04-15T19:47:45;13.30;58.00
46562;DHT22;32289;42.688;23.330;2023-04-15T19:51:26;13.30;58.10
46562;DHT22;32289;42.688;23.330;2023-04-15T19:55:07;13.30;58.40
46562;DHT22;32289;42.688;23.330;2023-04-15T19:58:48;13.20;58.10
46562;DHT22;32289;42.688;23.330;2023-04-15T20:02:32;13.00;58.40
46562;DHT22;32289;42.688;23.330;2023-04-15T20:06:15;13.20;58.10
46562;DHT22;32289;42.688;23.330;2023-04-15T20:09:56;13.30;58.20
46562;DHT22;32289;42.688;23.330;2023-04-15T20:13:37;13.50;58.20
46562;DHT22;32289;42.688;23.330;2023-04-15T20:17:18;13.40;57.60
46562;DHT22;32289;42.688;23.330;2023-04-15T20:20:59;13.10;58.30
46562;DHT22;32289;42.688;23.330;2023-04-15T20:24:40;13.10;58.60
46562;DHT22;32289;42.688;23.330;2023-04-15T20:28:20;13.10;59.10
46562;DHT22;32289;42.688;23.330;2023-04-15T20:32:02;13.20;59.10
46562;DHT22;32289;42.688;23.330;2023-04-15T20:35:43;13.20;59.10
46562;DHT22;32289;42.688;23.330;2023-04-15T20:39:24;13.40;60.20
46562;DHT22;32289;42.688;23.330;2023-04-15T20:43:05;13.40;59.10
46562;DHT22;32289;42.688;23.330;2023-04-15T20:46:45;13.30;59.20
46562;DHT22;32289;42.688;23.330;2023-04-15T20:50:26;13.20;60.10
46562;DHT22;32289;42.688;23.330;2023-04-15T20:54:07;13.30;60.90
46562;DHT22;32289;42.688;23.330;2023-04-15T20:57:47;13.30;60.50
46562;DHT22;32289;42.688;23.330;2023-04-15T21:01:28;13.20;61.00
46562;DHT22;32289;42.688;23.330;2023-04-15T21:05:09;13.10;61.30
46562;DHT22;32289;42.688;23.330;2023-04-15T21:08:49;13.10;61.80
46562;DHT22;32289;42.688;23.330;2023-04-15T21:12:31;13.20;62.50
46562;DHT22;32289;42.688;23.330;2023-04-15T21:16:12;13.20;62.10
46562;DHT22;32289;42.688;23.330;2023-04-15T21:19:53;13.30;61.60
46562;DHT22;32289;42.688;23.330;2023-04-15T21:23:33;13.20;62.70
46562;DHT22;32289;42.688;23.330;2023-04-15T21:27:17;13.00;62.10
46562;DHT22;32289;42.688;23.330;2023-04-15T21:30:57;12.80;61.70
46562;DHT22;32289;42.688;23.330;2023-04-15T21:34:38;12.80;62.60
46562;DHT22;32289;42.688;23.330;2023-04-15T21:38:19;12.80;64.10
46562;DHT22;32289;42.688;23.330;2023-04-15T21:42:00;12.80;63.20
46562;DHT22;32289;42.688;23.330;2023-04-15T21:45:42;12.40;62.50
46562;DHT22;32289;42.688;23.330;2023-04-15T21:49:23;12.50;62.60
46562;DHT22;32289;42.688;23.330;2023-04-15T21:53:06;12.50;62.50
46562;DHT22;32289;42.688;23.330;2023-04-15T21:56:47;12.40;63.10
46562;DHT22;32289;42.688;23.330;2023-04-15T22:00:29;12.30;62.50
46562;DHT22;32289;42.688;23.330;2023-04-15T22:04:10;12.30;61.30
46562;DHT22;32289;42.688;23.330;2023-04-15T22:07:50;12.60;62.80
46562;DHT22;32289;42.688;23.330;2023-04-15T22:11:31;12.60;61.10
46562;DHT22;32289;42.688;23.330;2023-04-15T22:15:12;12.60;62.50
46562;DHT22;32289;42.688;23.330;2023-04-15T22:18:53;12.60;61.80
46562;DHT22;32289;42.688;23.330;2023-04-15T22:22:34;12.60;61.90
46562;DHT22;32289;42.688;23.330;2023-04-15T22:26:15;12.70;61.90
46562;DHT22;32289;42.688;23.330;2023-04-15T22:29:55;12.70;61.80
46562;DHT22;32289;42.688;23.330;2023-04-15T22:33:36;12.80;62.40
46562;DHT22;32289;42.688;23.330;2023-04-15T22:37:18;12.60;64.40
46562;DHT22;32289;42.688;23.330;2023-04-15T22:40:58;12.50;67.80
46562;DHT22;32289;42.688;23.330;2023-04-15T22:44:40;12.40;74.60
46562;DHT22;32289;42.688;23.330;2023-04-15T22:48:20;12.50;80.50
46562;DHT22;32289;42.688;23.330;2023-04-15T22:52:01;12.40;85.50
46562;DHT22;32289;42.688;23.330;2023-04-15T22:55:48;12.30;90.60
46562;DHT22;32289;42.688;23.330;2023-04-15T22:59:29;12.20;93.10
46562;DHT22;32289;42.688;23.330;2023-04-15T23:03:10;12.00;95.90
46562;DHT22;32289;42.688;23.330;2023-04-15T23:06:50;11.90;97.60
46562;DHT22;32289;42.688;23.330;2023-04-15T23:10:31;11.80;97.60